Time;durP1;ratioP1;P1;durP2;ratioP2;P2;SDS_P1;SDS_P2;PMS_P1;PMS_P2;Temp;Humidity;BMP_temperature;BMP_pressure;BME280_temperature;BME280_humidity;BME280_pressure;Samples;Min_cycle;Max_cycle;Signal;HPM_P1;HPM_P2
2022/04/05 00:00:20;;;;;;;15.90;13.13;;;;;;;3.66;77.36;98916.00;1703086;84;21307;-71
2022/04/05 00:02:50;;;;;;;15.98;14.05;;;;;;;3.70;77.41;98912.42;1703047;84;21454;-71
2022/04/05 00:05:19;;;;;;;13.97;12.43;;;;;;;3.73;77.39;98913.62;1702942;84;21005;-71
2022/04/05 00:07:46;;;;;;;13.77;12.37;;;;;;;3.78;77.54;98905.25;1703240;84;21031;-72
2022/04/05 00:10:14;;;;;;;13.00;11.70;;;;;;;3.82;77.70;98914.59;1702866;83;21023;-72
2022/04/05 00:12:43;;;;;;;13.47;11.40;;;;;;;3.87;77.77;98890.67;1703288;84;20996;-71
2022/04/05 00:15:10;;;;;;;13.63;12.20;;;;;;;3.92;77.46;98906.08;1702859;84;21549;-71
2022/04/05 00:17:38;;;;;;;14.07;12.30;;;;;;;3.95;77.50;98908.56;1703134;84;20992;-71
2022/04/05 00:20:07;;;;;;;12.47;11.27;;;;;;;3.99;77.30;98891.99;1702965;84;21039;-72
2022/04/05 00:22:36;;;;;;;13.97;12.37;;;;;;;4.02;77.18;98891.45;1703174;84;21047;-71
2022/04/05 00:25:04;;;;;;;13.00;11.70;;;;;;;4.05;76.98;98882.73;1703100;84;21012;-72
2022/04/05 00:27:32;;;;;;;14.03;11.60;;;;;;;4.07;77.13;98886.09;1703181;84;21124;-71
2022/04/05 00:29:59;;;;;;;13.23;11.83;;;;;;;4.09;76.88;98881.70;1702936;84;21038;-71
2022/04/05 00:32:28;;;;;;;12.90;11.60;;;;;;;4.12;76.83;98878.16;1703160;84;21512;-77
2022/04/05 00:34:55;;;;;;;12.73;11.43;;;;;;;4.15;76.67;98883.23;1702938;84;21020;-71
2022/04/05 00:37:23;;;;;;;12.57;11.17;;;;;;;4.16;76.60;98880.61;1703214;84;21024;-72
2022/04/05 00:39:50;;;;;;;13.57;10.97;;;;;;;4.18;76.67;98870.16;1700135;84;22053;-71
2022/04/05 00:42:18;;;;;;;13.97;11.30;;;;;;;4.19;76.58;98870.12;1700385;84;20920;-71
2022/04/05 00:44:45;;;;;;;12.63;11.37;;;;;;;4.21;76.52;98876.11;1700111;84;21083;-71
2022/04/05 00:47:22;;;;;;;12.73;11.33;;;;;;;4.22;76.40;98893.34;1700503;84;21515;-71
2022/04/05 00:49:52;;;;;;;12.33;11.03;;;;;;;4.24;76.34;98877.30;1700240;84;21548;-71
2022/04/05 00:52:23;;;;;;;13.70;11.37;;;;;;;4.25;76.40;98880.73;1700513;84;21123;-71
2022/04/05 00:54:52;;;;;;;11.85;10.60;;;;;;;4.24;76.38;98865.63;1700321;84;21028;-71
2022/04/05 00:57:23;;;;;;;12.43;11.13;;;;;;;4.25;76.16;98862.12;1700142;84;21047;-71
2022/04/05 00:59:56;;;;;;;12.25;10.95;;;;;;;4.26;76.17;98857.77;1700818;84;21406;-71
2022/04/05 01:02:29;;;;;;;12.97;11.17;;;;;;;4.27;76.12;98863.80;1700333;84;21548;-71
2022/04/05 01:04:57;;;;;;;14.93;12.23;;;;;;;4.27;76.23;98854.30;1700219;84;21283;-71
2022/04/05 01:07:27;;;;;;;12.40;11.10;;;;;;;4.28;76.18;98859.02;1700287;84;21505;-71
2022/04/05 01:09:55;;;;;;;13.00;11.35;;;;;;;4.29;76.03;98864.59;1700219;84;21012;-71
2022/04/05 01:12:23;;;;;;;12.03;10.83;;;;;;;4.29;76.03;98869.78;1700155;84;21604;-71
2022/04/05 01:14:52;;;;;;;12.67;11.40;;;;;;;4.30;75.96;98855.94;1700232;84;20981;-71
2022/04/05 01:17:21;;;;;;;13.10;11.70;;;;;;;4.32;75.92;98895.61;1700117;84;21605;-72
2022/04/05 01:19:48;;;;;;;14.03;12.10;;;;;;;4.32;75.96;98864.02;1700114;84;20997;-71
2022/04/05 01:22:15;;;;;;;13.67;11.80;;;;;;;4.31;75.90;98861.50;1700192;84;21032;-72
2022/04/05 01:24:43;;;;;;;13.07;11.30;;;;;;;4.30;75.85;98863.72;1700537;84;21517;-72
2022/04/05 01:27:17;;;;;;;11.87;10.67;;;;;;;4.30;75.93;98865.02;1700141;84;21047;-71
2022/04/05 01:29:39;;;;;;;13.03;11.67;;;;;;;4.29;76.00;98873.67;1699540;84;21936;-71
2022/04/05 01:32:08;;;;;;;12.57;11.30;;;;;;;4.29;76.05;98868.03;1700166;84;21038;-78
2022/04/05 01:34:37;;;;;;;12.83;11.53;;;;;;;4.30;76.04;98858.07;1700330;84;20947;-71
2022/04/05 01:37:09;;;;;;;12.77;11.47;;;;;;;4.33;76.11;98862.30;1700115;84;21039;-71
2022/04/05 01:39:40;;;;;;;13.93;11.53;;;;;;;4.35;76.05;98860.48;1685876;84;21284;-71
2022/04/05 01:42:12;;;;;;;12.55;10.80;;;;;;;4.35;76.05;98869.13;1700667;84;21902;-71
2022/04/05 01:44:42;;;;;;;11.97;10.87;;;;;;;4.37;75.98;98862.57;1700457;84;20951;-71
2022/04/05 01:47:12;;;;;;;12.83;10.93;;;;;;;4.37;76.05;98859.98;1700717;84;21040;-71
2022/04/05 01:49:42;;;;;;;12.73;11.23;;;;;;;4.38;76.06;98866.42;1700788;84;20940;-71
2022/04/05 01:52:10;;;;;;;12.58;11.35;;;;;;;4.39;76.29;98853.84;1700663;84;21336;-71
2022/04/05 01:54:39;;;;;;;12.53;11.03;;;;;;;4.41;76.04;98864.17;1700752;84;21171;-71
2022/04/05 01:57:08;;;;;;;12.27;11.03;;;;;;;4.43;76.09;98860.63;1700665;84;21028;-72
2022/04/05 01:59:38;;;;;;;14.83;12.30;;;;;;;4.43;76.06;98854.13;1700475;84;21517;-71
2022/04/05 02:02:07;;;;;;;13.32;11.75;;;;;;;4.45;76.04;98859.25;1700766;84;21011;-77
2022/04/05 02:04:36;;;;;;;13.00;11.70;;;;;;;4.45;76.08;98851.47;1700819;84;21039;-74
2022/04/05 02:07:15;;;;;;;12.70;11.40;;;;;;;4.45;76.19;98861.39;1700504;84;21186;-71
2022/04/05 02:09:43;;;;;;;12.53;11.33;;;;;;;4.47;76.17;98853.56;1700549;84;21023;-72
2022/04/05 02:12:11;;;;;;;12.97;11.63;;;;;;;4.48;76.35;98863.02;1700495;84;21047;-71
2022/04/05 02:14:44;;;;;;;12.73;11.50;;;;;;;4.48;76.25;98866.91;1691758;84;21040;-71
2022/04/05 02:17:13;;;;;;;12.93;11.22;;;;;;;4.46;76.23;98857.91;1700276;84;21303;-71
2022/04/05 02:19:44;;;;;;;12.33;11.03;;;;;;;4.46;76.19;98843.64;1700507;84;21561;-71
2022/04/05 02:22:13;;;;;;;11.97;10.77;;;;;;;4.45;76.27;98852.30;1700633;84;21020;-71
2022/04/05 02:24:40;;;;;;;12.33;11.03;;;;;;;4.46;76.61;98852.72;1700699;84;21027;-72
2022/04/05 02:27:09;;;;;;;13.40;12.00;;;;;;;4.46;76.60;98851.84;1700743;84;20957;-71
2022/04/05 02:29:37;;;;;;;13.47;11.47;;;;;;;4.46;76.61;98856.61;1700558;84;21051;-71
2022/04/05 02:32:08;;;;;;;13.40;11.53;;;;;;;4.48;76.60;98842.27;1699815;84;21446;-71
2022/04/05 02:34:36;;;;;;;12.50;11.20;;;;;;;4.48;76.58;98848.75;1700565;84;21004;-71
2022/04/05 02:37:03;;;;;;;11.70;10.50;;;;;;;4.50;76.59;98850.84;1700569;84;21035;-71
2022/04/05 02:39:32;;;;;;;12.80;11.50;;;;;;;4.50;76.61;98854.74;1700490;84;20997;-71
2022/04/05 02:42:01;;;;;;;12.53;10.93;;;;;;;4.52;76.59;98852.07;1700579;84;21040;-71
2022/04/05 02:44:30;;;;;;;12.73;11.43;;;;;;;4.53;76.70;98857.67;1700453;84;21156;-72
2022/04/05 02:46:59;;;;;;;12.10;10.90;;;;;;;4.54;76.74;98844.63;1700270;84;21513;-71
2022/04/05 02:49:28;;;;;;;13.93;11.37;;;;;;;4.55;76.74;98850.69;1696098;84;21485;-72
2022/04/05 02:51:56;;;;;;;13.23;10.80;;;;;;;4.55;76.65;98850.23;1700444;84;21012;-71
2022/04/05 02:54:25;;;;;;;12.03;10.80;;;;;;;4.54;76.74;98854.17;1699741;84;21051;-71
2022/04/05 02:56:54;;;;;;;11.63;10.43;;;;;;;4.52;76.92;98851.64;1700590;84;21146;-71
2022/04/05 02:59:23;;;;;;;12.20;11.00;;;;;;;4.52;77.01;98852.07;1700661;84;21032;-71
2022/04/05 03:01:52;;;;;;;12.13;10.87;;;;;;;4.51;76.95;98847.80;1700759;84;21521;-71
2022/04/05 03:04:21;;;;;;;11.97;10.68;;;;;;;4.50;77.20;98853.45;1700634;84;21079;-71
2022/04/05 03:06:49;;;;;;;11.23;10.03;;;;;;;4.52;77.26;98850.78;1700846;84;21051;-71
2022/04/05 03:09:17;;;;;;;11.20;10.00;;;;;;;4.50;77.29;98852.14;1700460;84;21923;-72
2022/04/05 03:11:44;;;;;;;11.47;10.37;;;;;;;4.50;77.30;98856.50;1693354;84;21032;-74
2022/04/05 03:14:14;;;;;;;11.27;10.17;;;;;;;4.47;77.45;98846.62;1690211;84;21049;-73
2022/04/05 03:16:41;;;;;;;11.70;10.47;;;;;;;4.48;77.67;98846.16;1695118;84;21028;-74
2022/04/05 03:19:10;;;;;;;10.60;9.50;;;;;;;4.45;77.60;98840.63;1695065;84;21477;-73
2022/04/05 03:21:37;;;;;;;10.40;9.10;;;;;;;4.44;77.78;98842.00;1695151;84;21111;-73
2022/04/05 03:24:06;;;;;;;12.23;9.60;;;;;;;4.45;77.83;98847.58;1694956;84;21517;-73
2022/04/05 03:26:33;;;;;;;10.33;9.33;;;;;;;4.46;77.94;98842.77;1695125;84;21047;-74
2022/04/05 03:29:03;;;;;;;9.77;8.87;;;;;;;4.46;77.84;98848.83;1695089;84;21043;-74
2022/04/05 03:31:31;;;;;;;9.98;8.98;;;;;;;4.46;78.35;98838.88;1695341;84;21036;-75
2022/04/05 03:33:59;;;;;;;9.93;8.90;;;;;;;4.48;78.23;98842.27;1694986;84;21106;-75
2022/04/05 03:36:26;;;;;;;9.60;8.47;;;;;;;4.48;78.24;98839.67;1695099;84;21467;-75
2022/04/05 03:38:54;;;;;;;9.17;8.27;;;;;;;4.47;78.30;98844.48;1694992;84;21032;-74
2022/04/05 03:41:22;;;;;;;8.83;7.90;;;;;;;4.47;78.43;98841.42;1695322;84;21064;-73
2022/04/05 03:43:49;;;;;;;8.63;7.73;;;;;;;4.46;78.58;98842.77;1694912;84;21084;-74
2022/04/05 03:46:18;;;;;;;7.50;6.80;;;;;;;4.42;78.63;98839.91;1695092;84;21282;-74
2022/04/05 03:48:46;;;;;;;8.67;7.17;;;;;;;4.40;78.66;98837.81;1694826;84;21004;-73
2022/04/05 03:51:14;;;;;;;6.53;5.93;;;;;;;4.38;78.76;98836.59;1695198;84;21071;-74
2022/04/05 03:53:43;;;;;;;6.63;5.93;;;;;;;4.37;78.93;98840.06;1694855;84;21063;-72
2022/04/05 03:56:12;;;;;;;5.93;5.33;;;;;;;4.35;79.37;98855.28;1695004;84;21617;-72
2022/04/05 03:58:40;;;;;;;6.70;6.00;;;;;;;4.32;79.17;98850.22;1695236;84;21156;-72
2022/04/05 04:01:07;;;;;;;5.37;4.87;;;;;;;4.32;79.21;98852.81;1694891;84;21039;-72
2022/04/05 04:03:34;;;;;;;6.63;5.93;;;;;;;4.30;79.45;98855.48;1694920;84;21043;-72
2022/04/05 04:06:02;;;;;;;5.60;5.07;;;;;;;4.29;79.60;98858.11;1695103;84;21013;-72
2022/04/05 04:08:30;;;;;;;6.10;5.07;;;;;;;4.26;80.04;98857.77;1695061;84;21012;-72
2022/04/05 04:10:58;;;;;;;6.23;5.37;;;;;;;4.25;80.12;98863.41;1694926;83;21141;-72
2022/04/05 04:13:27;;;;;;;5.10;4.60;;;;;;;4.25;80.38;98858.68;1694837;84;21075;-72
2022/04/05 04:15:58;;;;;;;5.77;4.80;;;;;;;4.22;80.46;98855.75;1694863;84;21492;-72
2022/04/05 04:18:26;;;;;;;5.47;4.97;;;;;;;4.23;80.66;98876.03;1694883;84;21019;-72
2022/04/05 04:20:54;;;;;;;5.43;4.83;;;;;;;4.23;80.77;98856.13;1694995;84;21044;-72
2022/04/05 04:23:22;;;;;;;6.53;5.40;;;;;;;4.25;80.84;98876.84;1694900;84;21142;-72
2022/04/05 04:25:52;;;;;;;5.50;4.63;;;;;;;4.23;80.85;98874.73;1694859;84;21028;-76
2022/04/05 04:28:20;;;;;;;5.67;4.77;;;;;;;4.24;80.94;98879.05;1694818;84;21051;-72
2022/04/05 04:30:48;;;;;;;5.03;4.53;;;;;;;4.22;81.07;98874.36;1695236;84;21051;-72
2022/04/05 04:33:15;;;;;;;5.17;4.60;;;;;;;4.22;81.19;98865.28;1695079;84;21052;-72
2022/04/05 04:35:45;;;;;;;5.67;4.80;;;;;;;4.21;81.20;98900.75;1694880;84;21149;-72
2022/04/05 04:38:15;;;;;;;6.07;4.93;;;;;;;4.21;81.24;98883.02;1694990;84;21039;-72
2022/04/05 04:40:47;;;;;;;5.50;4.87;;;;;;;4.19;81.44;98865.39;1694950;84;21421;-72
2022/04/05 04:43:19;;;;;;;4.83;4.43;;;;;;;4.21;81.50;98879.13;1694932;84;21525;-75
2022/04/05 04:45:47;;;;;;;5.63;4.63;;;;;;;4.20;81.64;98886.06;1694925;84;21041;-72
2022/04/05 04:48:14;;;;;;;5.43;4.47;;;;;;;4.19;81.62;98871.88;1694835;84;21940;-73
2022/04/05 04:50:42;;;;;;;5.00;4.50;;;;;;;4.20;81.78;98887.36;1694937;84;21514;-74
2022/04/05 04:53:09;;;;;;;5.23;4.73;;;;;;;4.19;81.89;98878.36;1694880;84;21087;-72
2022/04/05 04:55:36;;;;;;;5.03;4.53;;;;;;;4.21;82.07;98883.89;1694724;84;21012;-76
2022/04/05 04:58:03;;;;;;;4.83;4.43;;;;;;;4.22;81.90;98895.10;1694965;84;21082;-73
2022/04/05 05:00:30;;;;;;;5.43;4.93;;;;;;;4.19;82.02;98885.68;1695202;84;21146;-71
2022/04/05 05:02:57;;;;;;;4.93;4.43;;;;;;;4.21;82.24;98886.91;1694971;83;21537;-78
2022/04/05 05:05:25;;;;;;;5.47;4.97;;;;;;;4.21;82.17;98885.61;1677127;84;21511;-77
2022/04/05 05:07:53;;;;;;;4.80;4.40;;;;;;;4.21;82.25;98887.78;1678276;84;21035;-77
2022/04/05 05:10:22;;;;;;;4.53;4.13;;;;;;;4.22;82.30;98900.29;1693970;84;21043;-76
2022/04/05 05:12:50;;;;;;;4.60;4.20;;;;;;;4.21;82.51;98899.88;1688966;83;21115;-76
2022/04/05 05:15:19;;;;;;;8.77;4.97;;;;;;;4.23;82.51;98904.56;1685124;84;21034;-76
2022/04/05 05:17:47;;;;;;;4.90;4.40;;;;;;;4.24;82.53;98912.30;1680725;84;21007;-76
2022/04/05 05:20:16;;;;;;;4.47;4.07;;;;;;;4.23;82.54;98905.41;1686498;84;21039;-75
2022/04/05 05:22:44;;;;;;;4.40;4.00;;;;;;;4.25;82.59;98928.70;1694382;83;21289;-76
2022/04/05 05:25:11;;;;;;;5.67;5.00;;;;;;;4.27;82.76;98923.45;1690390;83;21156;-75
2022/04/05 05:27:38;;;;;;;5.63;4.87;;;;;;;4.28;82.83;98922.11;1696635;83;21016;-76
2022/04/05 05:30:08;;;;;;;4.67;4.17;;;;;;;4.31;82.71;98927.64;1685743;83;21066;-75
2022/04/05 05:32:51;;;;;;;4.60;4.20;;;;;;;4.30;82.78;98926.80;1686309;84;21047;-75
2022/04/05 05:35:21;;;;;;;4.60;4.20;;;;;;;4.32;82.82;98935.36;1686710;84;21070;-75
2022/04/05 05:37:50;;;;;;;6.90;4.87;;;;;;;4.33;82.94;98931.88;1686866;84;21140;-76
2022/04/05 05:40:18;;;;;;;4.03;3.70;;;;;;;4.36;83.02;98951.23;1685996;84;21068;-75
2022/04/05 05:43:01;;;;;;;4.23;3.73;;;;;;;4.37;82.97;98942.98;1684929;84;21567;-76
2022/04/05 05:45:33;;;;;;;8.03;5.63;;;;;;;4.39;83.16;98951.57;1684722;84;21055;-75
2022/04/05 05:48:00;;;;;;;6.70;5.33;;;;;;;4.36;82.88;98964.20;1681513;84;21011;-75
2022/04/05 05:50:28;;;;;;;7.67;5.67;;;;;;;4.34;82.90;98969.88;1685962;84;21120;-76
2022/04/05 05:52:56;;;;;;;6.53;4.93;;;;;;;4.34;83.20;98973.77;1681641;83;21067;-76
2022/04/05 05:55:23;;;;;;;5.93;4.97;;;;;;;4.34;83.06;98976.82;1689260;84;21034;-77
2022/04/05 05:57:50;;;;;;;8.33;5.60;;;;;;;4.33;83.24;98991.55;1695227;84;20975;-77
2022/04/05 06:00:23;;;;;;;7.17;5.83;;;;;;;4.33;83.34;99001.91;1695035;84;21004;-76
2022/04/05 06:02:56;;;;;;;6.13;5.10;;;;;;;4.33;83.26;99005.81;1695078;84;21153;-77
2022/04/05 06:05:25;;;;;;;6.83;4.70;;;;;;;4.31;83.48;99005.46;1695220;84;21026;-78
2022/04/05 06:07:52;;;;;;;5.93;5.33;;;;;;;4.30;83.42;99012.40;1694956;84;21007;-76
2022/04/05 06:10:20;;;;;;;5.83;4.37;;;;;;;4.29;83.54;99014.58;1695238;84;21078;-76
2022/04/05 06:12:49;;;;;;;4.07;3.67;;;;;;;4.31;83.79;99016.67;1698704;84;21069;-77
2022/04/05 06:15:17;;;;;;;3.00;2.70;;;;;;;4.32;83.70;99018.81;1695321;84;21113;-75
2022/04/05 06:17:47;;;;;;;4.20;3.40;;;;;;;4.33;83.67;99043.88;1695115;84;21493;-75
2022/04/05 06:20:17;;;;;;;4.17;2.50;;;;;;;4.30;83.64;99024.08;1695517;84;21070;-76
2022/04/05 06:22:59;;;;;;;2.70;2.37;;;;;;;4.29;83.53;99030.14;1695506;84;21777;-76
2022/04/05 06:25:31;;;;;;;2.87;1.43;;;;;;;4.29;83.49;99026.70;1695249;84;21074;-75
2022/04/05 06:28:02;;;;;;;2.97;1.60;;;;;;;4.24;83.18;99032.06;1719486;83;21143;-74
2022/04/05 06:30:32;;;;;;;2.85;1.50;;;;;;;4.21;83.15;99033.44;1725386;83;21024;-74
2022/04/05 06:33:07;;;;;;;;;;;;;;;4.24;83.22;99043.73;1728047;83;21532;-74
2022/04/05 06:35:38;;;;;;;5.67;2.87;;;;;;;4.24;83.25;99045.03;1725277;83;20184;-74
2022/04/05 06:38:06;;;;;;;3.97;1.97;;;;;;;4.29;83.31;99061.72;1724622;83;21015;-74
2022/04/05 06:40:33;;;;;;;2.27;1.10;;;;;;;4.29;83.09;99045.70;1725146;83;21128;-73
2022/04/05 06:43:01;;;;;;;2.80;0.93;;;;;;;4.26;82.85;99052.29;1725204;83;21023;-73
2022/04/05 06:45:28;;;;;;;1.80;0.90;;;;;;;4.24;82.87;99065.78;1725327;83;21000;-73
2022/04/05 06:47:56;;;;;;;1.13;0.67;;;;;;;4.19;82.78;99062.48;1725228;83;21536;-73
2022/04/05 06:50:26;;;;;;;1.87;0.70;;;;;;;4.21;82.74;99052.46;1725330;83;21519;-73
2022/04/05 06:52:59;;;;;;;1.65;0.70;;;;;;;4.22;82.72;99067.11;1725618;83;21126;-74
2022/04/05 06:55:26;;;;;;;3.00;1.10;;;;;;;4.24;82.74;99060.59;1725251;83;20996;-73
2022/04/05 06:57:54;;;;;;;2.50;0.80;;;;;;;4.28;82.74;99062.17;1725553;83;21090;-73
2022/04/05 07:00:26;;;;;;;2.20;0.50;;;;;;;4.35;82.80;99056.32;1725193;83;21015;-73
2022/04/05 07:02:51;;;;;;;1.47;0.70;;;;;;;4.40;82.65;99066.95;1724591;83;21010;-73
2022/04/05 07:05:19;;;;;;;1.63;0.83;;;;;;;4.45;82.67;99058.56;1724955;83;21958;-69
2022/04/05 07:07:47;;;;;;;1.30;0.60;;;;;;;4.54;82.76;99067.78;1724930;83;21015;-73
2022/04/05 07:10:18;;;;;;;2.30;0.90;;;;;;;4.62;82.63;99063.18;1724912;83;21047;-74
2022/04/05 07:12:47;;;;;;;1.63;0.70;;;;;;;4.73;82.75;99069.30;1713648;83;21023;-75
2022/04/05 07:15:14;;;;;;;1.63;0.60;;;;;;;4.81;82.52;99062.55;1725479;83;21019;-74
2022/04/05 07:17:43;;;;;;;2.60;0.73;;;;;;;4.89;82.40;99065.73;1725510;83;21127;-74
2022/04/05 07:20:11;;;;;;;2.50;1.00;;;;;;;4.96;82.15;99052.07;1725288;83;21075;-75
2022/04/05 07:22:49;;;;;;;2.03;0.80;;;;;;;4.98;82.03;99064.09;1725576;83;21003;-75
2022/04/05 07:25:21;;;;;;;3.10;0.83;;;;;;;5.04;81.98;99068.22;1725519;83;21027;-75
2022/04/05 07:27:51;;;;;;;3.20;0.80;;;;;;;5.07;81.73;99067.69;1725615;83;21308;-75
2022/04/05 07:30:19;;;;;;;1.70;0.60;;;;;;;5.08;81.58;99067.23;1725428;83;21824;-74
2022/04/05 07:32:47;;;;;;;4.33;0.70;;;;;;;5.09;81.38;99071.05;1725436;83;21004;-75
2022/04/05 07:35:17;;;;;;;2.10;0.67;;;;;;;5.15;81.43;99066.09;1725485;83;32445;-72
2022/04/05 07:37:45;;;;;;;3.10;0.70;;;;;;;5.24;81.42;99071.43;1725453;83;21556;-73
2022/04/05 07:40:13;;;;;;;6.30;1.30;;;;;;;5.28;81.22;99072.53;1725451;83;21473;-73
2022/04/05 07:42:43;;;;;;;4.07;1.00;;;;;;;5.32;81.04;99073.27;1719540;82;21088;-73
2022/04/05 07:45:13;;;;;;;3.10;0.90;;;;;;;5.38;80.93;99084.75;1705445;84;21028;-72
2022/04/05 07:47:41;;;;;;;2.30;1.00;;;;;;;5.43;80.86;99098.43;1715975;83;21023;-73
2022/04/05 07:50:10;;;;;;;3.63;1.03;;;;;;;5.47;80.70;99088.30;1725780;82;21508;-73
2022/04/05 07:52:38;;;;;;;1.73;0.80;;;;;;;5.54;80.67;99097.58;1723449;83;21027;-74
2022/04/05 07:55:07;;;;;;;2.27;0.80;;;;;;;5.60;80.53;99093.90;1725715;83;21131;-75
2022/04/05 07:57:40;;;;;;;2.23;0.97;;;;;;;5.68;80.61;99096.19;1700669;83;21015;-74
2022/04/05 08:00:05;;;;;;;3.53;1.20;;;;;;;5.73;80.24;99100.30;1711493;82;21045;-73
2022/04/05 08:02:35;;;;;;;4.73;1.30;;;;;;;5.75;80.04;99095.90;1705678;83;21094;-73
2022/04/05 08:05:02;;;;;;;3.20;1.20;;;;;;;5.77;79.82;99104.50;1705691;83;21066;-73
2022/04/05 08:07:29;;;;;;;3.43;1.30;;;;;;;5.78;79.64;99098.84;1705297;84;21400;-73
2022/04/05 08:09:58;;;;;;;2.23;0.97;;;;;;;5.84;79.81;99100.36;1705212;84;21003;-73
2022/04/05 08:12:25;;;;;;;3.90;1.40;;;;;;;5.87;79.48;99108.87;1704821;84;21038;-73
2022/04/05 08:14:52;;;;;;;5.37;1.23;;;;;;;5.81;79.16;99096.96;1702857;84;21034;-73
2022/04/05 08:17:19;;;;;;;2.97;1.40;;;;;;;5.85;79.33;99099.02;1702953;84;21019;-75
2022/04/05 08:19:46;;;;;;;4.20;1.50;;;;;;;5.88;79.29;99098.89;1696697;84;21140;-74
2022/04/05 08:22:13;;;;;;;4.00;1.70;;;;;;;5.95;79.25;99113.83;1696111;84;21027;-73
2022/04/05 08:24:41;;;;;;;2.93;1.57;;;;;;;6.00;79.15;99112.73;1695219;84;21042;-74
2022/04/05 08:27:08;;;;;;;6.80;2.30;;;;;;;6.03;78.94;99111.31;1695255;84;20980;-73
2022/04/05 08:29:40;;;;;;;5.53;1.87;;;;;;;6.08;78.94;99118.11;1695163;84;21075;-73
2022/04/05 08:32:05;;;;;;;5.60;1.60;;;;;;;6.12;78.54;99114.46;1694840;84;21968;-74
2022/04/05 08:34:33;;;;;;;4.37;1.60;;;;;;;6.17;78.32;99108.17;1695131;84;21003;-73
2022/04/05 08:37:00;;;;;;;4.53;1.83;;;;;;;6.20;78.31;99121.52;1695487;84;21084;-73
2022/04/05 08:39:28;;;;;;;3.17;1.47;;;;;;;6.28;78.39;99120.75;1695071;84;21090;-79
2022/04/05 08:41:56;;;;;;;5.00;1.60;;;;;;;6.31;77.90;99108.08;1697637;84;21047;-73
2022/04/05 08:44:24;;;;;;;5.67;1.73;;;;;;;6.33;77.78;99116.22;1695172;84;21111;-74
2022/04/05 08:46:52;;;;;;;6.33;1.70;;;;;;;6.40;77.56;99127.22;1695413;84;20980;-74
2022/04/05 08:49:20;;;;;;;4.37;1.60;;;;;;;6.42;77.26;99119.74;1695178;84;21020;-75
2022/04/05 08:51:49;;;;;;;3.67;1.70;;;;;;;6.46;77.38;99128.30;1695585;84;21051;-75
2022/04/05 08:54:16;;;;;;;5.57;1.70;;;;;;;6.56;77.43;99135.27;1699031;83;21047;-73
2022/04/05 08:56:43;;;;;;;3.83;1.53;;;;;;;6.64;77.10;99138.40;1705689;83;21138;-77
2022/04/05 08:59:10;;;;;;;5.47;1.63;;;;;;;6.66;77.00;99140.49;1697567;84;21295;-77
2022/04/05 09:01:38;;;;;;;3.20;1.30;;;;;;;6.68;76.71;99143.43;1697704;84;21099;-75
2022/04/05 09:04:05;;;;;;;5.80;1.87;;;;;;;6.71;76.70;99148.97;1697589;84;21080;-77
2022/04/05 09:06:36;;;;;;;5.67;1.77;;;;;;;6.72;76.27;99152.41;1697774;84;21998;-79
2022/04/05 09:09:18;;;;;;;2.87;1.80;;;;;;;6.68;76.22;99149.09;1697559;84;21239;-72
2022/04/05 09:11:53;;;;;;;4.30;1.80;;;;;;;6.71;76.00;99148.97;1704377;82;21015;-73
2022/04/05 09:14:25;;;;;;;6.53;2.03;;;;;;;6.72;75.96;99159.77;1680186;84;21026;-76
2022/04/05 09:17:14;;;;;;;7.20;2.50;;;;;;;6.78;75.85;99152.16;1674173;85;21068;-74
2022/04/05 09:19:45;;;;;;;5.73;3.20;;;;;;;6.94;76.22;99148.00;1674494;85;21034;-71
2022/04/05 09:22:13;;;;;;;6.30;2.27;;;;;;;7.17;76.22;99164.41;1685653;84;21125;-73
2022/04/05 09:24:47;;;;;;;6.40;2.77;;;;;;;7.32;75.75;99168.98;1710895;83;22064;-73
2022/04/05 09:27:12;;;;;;;5.17;2.33;;;;;;;7.34;75.30;99173.22;1692759;84;21512;-72
2022/04/05 09:29:51;;;;;;;5.80;2.17;;;;;;;7.33;75.17;99170.20;1646021;87;21038;-73
2022/04/05 09:32:37;;;;;;;7.07;2.10;;;;;;;7.39;74.93;99174.30;1674107;85;21042;-73
2022/04/05 09:35:10;;;;;;;4.87;2.10;;;;;;;7.42;74.46;99175.46;1674818;85;21273;-72
2022/04/05 09:37:38;;;;;;;5.47;2.20;;;;;;;7.51;74.43;99170.30;1674575;84;21467;-72
2022/04/05 09:40:37;;;;;;;6.07;1.97;;;;;;;7.55;74.03;99170.11;1674866;85;20969;-72
2022/04/05 09:43:12;;;;;;;3.13;1.70;;;;;;;7.56;73.92;99176.16;1671948;84;21027;-72
2022/04/05 09:46:05;;;;;;;8.10;2.20;;;;;;;7.66;73.85;99170.94;1701252;84;21034;-74
2022/04/05 09:48:36;;;;;;;3.98;1.60;;;;;;;7.84;73.74;99190.11;1700919;84;21221;-74
2022/04/05 09:51:14;;;;;;;8.43;1.97;;;;;;;7.94;73.46;99180.96;1701179;84;21022;-73
2022/04/05 09:53:55;;;;;;;4.20;1.60;;;;;;;8.06;72.89;99192.59;1701691;84;21011;-73
2022/04/05 09:56:39;;;;;;;5.50;2.15;;;;;;;8.14;72.43;99182.65;1701622;84;21055;-71
2022/04/05 09:59:21;;;;;;;7.33;2.50;;;;;;;8.03;71.78;99190.97;1680058;84;20999;-73
2022/04/05 10:01:51;;;;;;;4.77;1.40;;;;;;;8.00;71.53;99189.81;1701228;84;21140;-72
2022/04/05 10:04:19;;;;;;;4.78;1.67;;;;;;;8.14;71.46;99185.26;1646347;87;21014;-74
2022/04/05 10:06:47;;;;;;;5.13;2.00;;;;;;;8.24;71.43;99190.45;1674666;85;21049;-72
2022/04/05 10:09:17;;;;;;;6.47;1.67;;;;;;;8.31;70.90;99191.45;1674978;85;21432;-71
2022/04/05 10:11:46;;;;;;;5.62;1.65;;;;;;;8.35;70.42;99161.23;1674818;85;26488;-72
2022/04/05 10:14:20;;;;;;;3.00;1.30;;;;;;;8.35;70.15;99195.63;1670506;85;21226;-74
2022/04/05 10:16:46;;;;;;;5.47;1.70;;;;;;;8.33;69.73;99172.66;1668643;86;21026;-73
2022/04/05 10:19:13;;;;;;;7.73;1.80;;;;;;;8.54;70.12;99172.98;1668878;86;21042;-73
2022/04/05 10:21:42;;;;;;;2.93;1.57;;;;;;;8.91;70.34;99180.31;1640521;87;21043;-73
2022/04/05 10:24:11;;;;;;;6.03;1.60;;;;;;;9.16;69.30;99182.54;1668803;86;21603;-72
2022/04/05 10:26:40;;;;;;;4.37;1.90;;;;;;;9.36;69.13;99181.05;1700685;84;21894;-73
2022/04/05 10:29:15;;;;;;;4.87;1.80;;;;;;;9.58;67.78;99205.63;1668953;86;21574;-74
2022/04/05 10:32:07;;;;;;;4.73;1.30;;;;;;;9.66;68.13;99183.47;1700566;84;21035;-73
2022/04/05 10:34:57;;;;;;;5.63;1.40;;;;;;;9.59;67.71;99186.42;1699988;84;21039;-73
2022/04/05 10:37:37;;;;;;;5.53;2.37;;;;;;;9.30;66.51;99187.91;1700700;84;21135;-74
2022/04/05 10:40:10;;;;;;;3.60;1.52;;;;;;;9.13;66.15;99179.62;1669060;85;21151;-74
2022/04/05 10:42:41;;;;;;;2.40;1.17;;;;;;;8.94;65.87;99184.08;1700728;84;21083;-72
2022/04/05 10:45:13;;;;;;;5.07;1.80;;;;;;;8.96;65.58;99183.55;1700529;84;20988;-72
2022/04/05 10:48:18;;;;;;;5.20;1.80;;;;;;;9.26;66.06;99192.92;1700686;84;21634;-73
2022/04/05 10:51:05;;;;;;;4.73;1.77;;;;;;;9.37;65.80;99182.77;1700521;84;21035;-72
2022/04/05 10:53:40;;;;;;;5.67;2.30;;;;;;;9.87;65.92;99188.88;1700596;84;21171;-76
2022/04/05 10:56:14;;;;;;;4.20;2.12;;;;;;;10.38;65.67;99176.98;1700422;84;21079;-76
2022/04/05 10:58:49;;;;;;;6.17;2.10;;;;;;;10.78;64.82;99179.52;1700687;84;21021;-77
2022/04/05 11:01:22;;;;;;;7.67;2.72;;;;;;;10.96;63.54;99170.20;1697605;84;21574;-75
2022/04/05 11:04:20;;;;;;;4.70;2.30;;;;;;;10.81;63.45;99174.53;1700863;84;20996;-75
2022/04/05 11:07:09;;;;;;;4.67;1.77;;;;;;;10.80;63.37;99182.88;1700503;84;21149;-75
2022/04/05 11:09:50;;;;;;;5.37;1.82;;;;;;;10.77;63.00;99190.08;1700769;84;20988;-72
2022/04/05 11:12:28;;;;;;;2.52;1.10;;;;;;;10.76;63.31;99189.23;1664926;86;21079;-74
2022/04/05 11:15:03;;;;;;;2.58;1.10;;;;;;;10.90;61.76;99198.93;1679703;84;21561;-74
2022/04/05 11:17:29;;;;;;;3.00;1.20;;;;;;;11.04;61.31;99187.17;1703640;84;21055;-74
2022/04/05 11:19:59;;;;;;;3.20;1.10;;;;;;;11.39;60.64;99202.63;1703757;84;21204;-74
2022/04/05 11:22:33;;;;;;;4.08;1.20;;;;;;;11.57;60.21;99189.70;1703940;84;21019;-74
2022/04/05 11:25:19;;;;;;;2.50;1.20;;;;;;;11.45;59.87;99198.80;1703677;84;21035;-74
2022/04/05 11:27:50;;;;;;;3.45;0.90;;;;;;;11.47;58.95;99208.70;1698165;84;21421;-74
2022/04/05 11:30:37;;;;;;;2.33;1.00;;;;;;;11.47;59.61;99200.36;1703716;84;21028;-76
2022/04/05 11:33:32;;;;;;;2.05;0.93;;;;;;;11.68;59.67;99191.67;1703061;84;21885;-77
2022/04/05 11:36:07;;;;;;;2.30;1.02;;;;;;;11.77;58.75;99192.89;1703615;84;21008;-77
2022/04/05 11:38:45;;;;;;;1.27;0.75;;;;;;;11.84;58.49;99198.16;1703609;84;21485;-77
2022/04/05 11:41:31;;;;;;;3.50;0.90;;;;;;;11.74;57.20;99203.11;1703361;84;22015;-75
2022/04/05 11:44:09;;;;;;;1.82;0.75;;;;;;;11.79;57.38;99204.15;1693363;84;21533;-76
2022/04/05 11:46:37;;;;;;;4.40;0.75;;;;;;;11.84;57.37;99195.53;1679481;84;21488;-76
2022/04/05 11:49:08;;;;;;;3.67;1.47;;;;;;;12.06;56.50;99189.83;1690087;84;21532;-75
2022/04/05 11:51:37;;;;;;;3.27;1.65;;;;;;;12.19;56.35;99197.31;1686733;84;21034;-76